Time;durP1;ratioP1;P1;durP2;ratioP2;P2;SDS_P1;SDS_P2;PMS_P1;PMS_P2;Temp;Humidity;BMP_temperature;BMP_pressure;BME280_temperature;BME280_humidity;BME280_pressure;Samples;Min_cycle;Max_cycle;Signal;HPM_P1;HPM_P2
2022/08/12 00:44:39;;;;;;;6.25;3.08;;;;;;;;;;5010436;28;97186;-75
2022/08/12 00:47:08;;;;;;;5.47;2.72;;;;;;;;;;5012008;28;95443;-76
2022/08/12 00:49:51;;;;;;;5.78;2.83;;;;;;;;;;5009718;28;96982;-75
2022/08/12 00:52:18;;;;;;;10.38;4.25;;;;;;;;;;5028049;28;98080;-75
2022/08/12 00:54:49;;;;;;;13.95;3.15;;;;;;;;;;5016761;27;95723;-75
2022/08/12 00:57:20;;;;;;;4.78;3.05;;;;;;;;;;5019135;28;97077;-75
2022/08/12 00:59:54;;;;;;;9.67;2.87;;;;;;;;;;5016832;28;95819;-75
2022/08/12 01:02:23;;;;;;;8.63;3.25;;;;;;;;;;5023725;28;95468;-75
2022/08/12 01:13:21;;;;;;;7.30;3.40;;;;;;;;;;5010251;28;97529;-75
2022/08/12 01:15:49;;;;;;;7.40;3.30;;;;;;;;;;5010779;28;95376;-75
2022/08/12 01:18:16;;;;;;;8.07;3.00;;;;;;;;;;5010195;28;96867;-75
2022/08/12 01:20:52;;;;;;;12.70;3.88;;;;;;;;;;5009672;28;98259;-77
2022/08/12 01:23:30;;;;;;;8.75;3.80;;;;;;;;;;5012744;28;95251;-75
2022/08/12 01:25:58;;;;;;;9.75;3.80;;;;;;;;;;5030790;28;96824;-77
2022/08/12 01:28:26;;;;;;;10.13;3.50;;;;;;;;;;5029684;28;97466;-75
2022/08/12 01:30:53;;;;;;;7.20;3.60;;;;;;;;;;5010850;28;97344;-76
2022/08/12 01:33:20;;;;;;;6.13;3.40;;;;;;;;;;5008998;28;97701;-76
2022/08/12 01:35:49;;;;;;;6.95;3.40;;;;;;;;;;5008901;28;95575;-76
2022/08/12 01:38:34;;;;;;;6.13;3.20;;;;;;;;;;4992774;28;97024;-75
2022/08/12 01:41:01;;;;;;;8.98;3.38;;;;;;;;;;5008365;28;97665;-75
2022/08/12 01:43:29;;;;;;;9.75;3.78;;;;;;;;;;5005866;28;95844;-75
2022/08/12 01:46:01;;;;;;;7.57;3.50;;;;;;;;;;4988922;28;97111;-76
2022/08/12 01:48:41;;;;;;;5.43;3.53;;;;;;;;;;4999056;28;97798;-75
2022/08/12 01:51:30;;;;;;;7.88;3.40;;;;;;;;;;5012837;28;95368;-75
2022/08/12 01:54:17;;;;;;;6.15;3.30;;;;;;;;;;5008799;28;98843;-75
2022/08/12 01:56:51;;;;;;;11.02;3.15;;;;;;;;;;5009932;28;95510;-76
2022/08/12 02:02:29;;;;;;;6.97;3.47;;;;;;;;;;5007573;28;97704;-76
2022/08/12 02:11:44;;;;;;;6.15;3.60;;;;;;;;;;4994266;28;97586;-75
2022/08/12 02:14:23;;;;;;;5.03;3.40;;;;;;;;;;5008149;28;96393;-75
2022/08/12 02:16:57;;;;;;;6.70;3.65;;;;;;;;;;5013099;28;96809;-75
2022/08/12 02:19:33;;;;;;;6.90;3.80;;;;;;;;;;5009907;28;95266;-75
2022/08/12 02:22:10;;;;;;;6.20;3.50;;;;;;;;;;5008287;28;97150;-75
2022/08/12 02:24:37;;;;;;;5.07;3.28;;;;;;;;;;5008551;28;97401;-75
2022/08/12 02:27:07;;;;;;;10.18;3.83;;;;;;;;;;5009297;28;95416;-75
2022/08/12 02:29:34;;;;;;;7.53;3.63;;;;;;;;;;5009219;28;95722;-75
2022/08/12 02:32:02;;;;;;;7.40;3.60;;;;;;;;;;5008928;28;97375;-75
2022/08/12 02:34:29;;;;;;;5.75;3.50;;;;;;;;;;5008675;28;95596;-75
2022/08/12 02:36:56;;;;;;;14.05;3.55;;;;;;;;;;5009000;28;97033;-74
2022/08/12 02:39:29;;;;;;;7.38;3.40;;;;;;;;;;5012068;28;97135;-78
2022/08/12 02:41:57;;;;;;;11.98;3.40;;;;;;;;;;5009367;28;96838;-75
2022/08/12 02:44:25;;;;;;;10.88;4.00;;;;;;;;;;5008865;28;97347;-75
2022/08/12 02:46:53;;;;;;;11.65;3.72;;;;;;;;;;5009033;28;95767;-75
2022/08/12 02:49:30;;;;;;;8.18;4.10;;;;;;;;;;5008236;28;96770;-75
2022/08/12 02:51:57;;;;;;;9.50;3.45;;;;;;;;;;5007748;28;97918;-75
2022/08/12 02:54:23;;;;;;;6.50;3.97;;;;;;;;;;5009430;28;95874;-75
2022/08/12 02:56:50;;;;;;;9.32;4.07;;;;;;;;;;5008368;28;97104;-75
2022/08/12 02:59:22;;;;;;;7.85;4.03;;;;;;;;;;5012122;28;97409;-75
2022/08/12 03:01:53;;;;;;;8.68;3.80;;;;;;;;;;5008347;28;97022;-75
2022/08/12 03:04:25;;;;;;;11.40;3.78;;;;;;;;;;5006512;28;97870;-75
2022/08/12 03:07:00;;;;;;;8.15;3.90;;;;;;;;;;5008356;28;95300;-75
2022/08/12 03:09:28;;;;;;;7.15;3.42;;;;;;;;;;5005992;28;96785;-75
2022/08/12 03:12:09;;;;;;;5.90;3.70;;;;;;;;;;5008770;28;97248;-75
2022/08/12 03:14:44;;;;;;;7.35;4.00;;;;;;;;;;5008405;28;95333;-76
2022/08/12 03:17:23;;;;;;;5.35;3.60;;;;;;;;;;5008934;28;96820;-75
2022/08/12 03:19:53;;;;;;;7.80;3.63;;;;;;;;;;5008952;28;97299;-75
2022/08/12 03:22:39;;;;;;;6.75;3.95;;;;;;;;;;5011619;28;95234;-75
2022/08/12 03:25:08;;;;;;;9.32;3.92;;;;;;;;;;5006946;28;97454;-76
2022/08/12 03:27:38;;;;;;;5.30;3.60;;;;;;;;;;5008522;28;95503;-75
2022/08/12 03:30:04;;;;;;;7.18;4.18;;;;;;;;;;5008769;28;97085;-76
2022/08/12 03:32:36;;;;;;;8.68;4.00;;;;;;;;;;5007604;28;97314;-76
2022/08/12 03:35:06;;;;;;;6.32;3.97;;;;;;;;;;5007571;28;95346;-76
2022/08/12 03:37:33;;;;;;;6.22;3.75;;;;;;;;;;4999324;28;97231;-76
2022/08/12 03:40:00;;;;;;;5.13;3.70;;;;;;;;;;5006710;28;97467;-75
2022/08/12 03:42:39;;;;;;;6.68;4.28;;;;;;;;;;5008255;28;95634;-76
2022/08/12 04:01:56;;;;;;;7.13;4.30;;;;;;;;;;5007611;28;97564;-75
2022/08/12 04:04:33;;;;;;;8.93;4.25;;;;;;;;;;4999432;28;95836;-76
2022/08/12 04:07:05;;;;;;;12.82;4.25;;;;;;;;;;5007522;28;96835;-75
2022/08/12 04:09:31;;;;;;;;;;;;;;;;;;5010591;28;97705;-75
2022/08/12 04:14:43;;;;;;;9.02;3.65;;;;;;;;;;5011147;28;97462;-75
2022/08/12 04:17:10;;;;;;;8.98;4.50;;;;;;;;;;5011572;28;95945;-75
2022/08/12 04:19:37;;;;;;;6.63;4.32;;;;;;;;;;5011072;28;96966;-75
2022/08/12 04:22:03;;;;;;;6.15;4.15;;;;;;;;;;5010253;28;97746;-75
2022/08/12 04:24:36;;;;;;;8.27;4.32;;;;;;;;;;5011169;28;95890;-75
2022/08/12 04:27:09;;;;;;;6.72;4.28;;;;;;;;;;5011626;28;96915;-75
2022/08/12 04:29:36;;;;;;;8.80;4.13;;;;;;;;;;5010428;28;97404;-75
2022/08/12 04:32:23;;;;;;;6.40;3.88;;;;;;;;;;5014281;28;95818;-75
2022/08/12 04:34:50;;;;;;;6.95;4.22;;;;;;;;;;5010821;28;97438;-75
2022/08/12 04:37:16;;;;;;;6.55;4.38;;;;;;;;;;5010983;28;95221;-76
2022/08/12 04:39:43;;;;;;;8.00;4.65;;;;;;;;;;5010503;28;97042;-76
2022/08/12 04:42:10;;;;;;;13.13;4.20;;;;;;;;;;5011299;28;97775;-76
2022/08/12 04:44:36;;;;;;;16.52;3.97;;;;;;;;;;5011418;28;95593;-75
2022/08/12 20:03:46;;;;;;;13.43;3.13;;;;;;;;;;5091991;27;95244;-82
2022/08/12 20:06:23;;;;;;;18.10;3.25;;;;;;;;;;5066724;27;97486;-80
2022/08/12 20:08:55;;;;;;;11.65;3.03;;;;;;;;;;5066847;27;95781;-82
2022/08/12 20:11:25;;;;;;;7.68;3.13;;;;;;;;;;5066656;27;96058;-81
2022/08/12 20:14:13;;;;;;;14.60;3.45;;;;;;;;;;5064492;27;99458;-80
2022/08/12 20:16:44;;;;;;;18.27;4.05;;;;;;;;;;5064622;27;95560;-82
2022/08/12 20:19:24;;;;;;;7.78;3.08;;;;;;;;;;5064585;27;100856;-82
2022/08/12 20:22:11;;;;;;;15.18;4.75;;;;;;;;;;5067253;27;99265;-83
2022/08/12 20:24:40;;;;;;;14.35;3.80;;;;;;;;;;5072177;27;95254;-82
2022/08/12 20:27:07;;;;;;;10.70;3.53;;;;;;;;;;5066886;27;97881;-81
2022/08/12 20:29:53;;;;;;;9.52;3.60;;;;;;;;;;5057670;27;96587;-83
2022/08/12 20:32:20;;;;;;;12.57;3.65;;;;;;;;;;5068345;27;95958;-83
2022/08/12 20:34:55;;;;;;;6.15;3.50;;;;;;;;;;5068663;27;97276;-83
2022/08/12 20:37:25;;;;;;;15.95;3.50;;;;;;;;;;5067314;27;95714;-83
2022/08/12 20:40:12;;;;;;;20.80;3.55;;;;;;;;;;5056565;27;98588;-82
2022/08/12 20:42:38;;;;;;;13.43;3.45;;;;;;;;;;5068358;27;97277;-82
2022/08/12 20:45:07;;;;;;;15.48;3.92;;;;;;;;;;5068617;27;95328;-83
2022/08/12 20:47:33;;;;;;;12.25;3.63;;;;;;;;;;5070316;27;97003;-82
2022/08/12 20:50:08;;;;;;;8.75;3.20;;;;;;;;;;5068633;27;95351;-82
2022/08/12 20:52:34;;;;;;;11.80;3.15;;;;;;;;;;5067040;27;96762;-82
2022/08/12 20:55:05;;;;;;;8.32;3.03;;;;;;;;;;5067628;27;97375;-82
2022/08/12 20:57:44;;;;;;;12.85;2.80;;;;;;;;;;5068458;27;95260;-82
2022/08/12 21:00:30;;;;;;;7.78;3.55;;;;;;;;;;5068436;27;96623;-81
2022/08/12 21:06:55;;;;;;;17.63;3.70;;;;;;;;;;5063476;27;97354;-80
2022/08/12 21:08:38;;;;;;;9.85;3.42;;;;;;;;;;5067612;27;97232;-82
2022/08/12 21:11:05;;;;;;;14.70;3.45;;;;;;;;;;5070661;27;97422;-82
2022/08/12 21:13:31;;;;;;;10.38;3.50;;;;;;;;;;5062912;27;97218;-82
2022/08/12 21:16:05;;;;;;;15.18;3.95;;;;;;;;;;5051394;27;96501;-82
2022/08/12 21:18:36;;;;;;;10.00;3.20;;;;;;;;;;5051849;27;95375;-82
2022/08/12 21:21:04;;;;;;;9.30;3.88;;;;;;;;;;5054523;27;96875;-82
2022/08/12 21:23:31;;;;;;;11.07;3.85;;;;;;;;;;5053407;27;97295;-82
2022/08/12 21:26:05;;;;;;;20.35;4.30;;;;;;;;;;5052818;27;95193;-82
2022/08/12 21:28:37;;;;;;;14.48;4.25;;;;;;;;;;5050138;27;96617;-80
2022/08/12 21:31:03;;;;;;;10.10;3.95;;;;;;;;;;5049105;27;97246;-81
2022/08/12 21:33:56;;;;;;;13.18;4.18;;;;;;;;;;5045287;27;95293;-81
2022/08/12 21:36:36;;;;;;;8.90;3.90;;;;;;;;;;5054322;27;97473;-81
2022/08/12 21:39:05;;;;;;;18.35;4.15;;;;;;;;;;5054511;27;95280;-79
2022/08/12 21:41:45;;;;;;;9.05;4.00;;;;;;;;;;5051412;27;96683;-82
2022/08/12 21:44:16;;;;;;;13.15;4.78;;;;;;;;;;5052614;27;96318;-81
2022/08/12 21:47:04;;;;;;;16.02;4.82;;;;;;;;;;5052879;27;95584;-80
2022/08/12 21:49:45;;;;;;;14.43;4.80;;;;;;;;;;5050819;27;96661;-81
2022/08/12 21:52:24;;;;;;;17.65;4.55;;;;;;;;;;5044559;27;97718;-81
2022/08/12 21:55:00;;;;;;;10.23;4.15;;;;;;;;;;5049840;27;95716;-82
2022/08/12 21:57:29;;;;;;;14.30;4.00;;;;;;;;;;5055051;27;96977;-81
2022/08/12 22:00:02;;;;;;;10.65;3.78;;;;;;;;;;5053952;27;95106;-80
2022/08/12 22:07:59;;;;;;;15.30;4.40;;;;;;;;;;5051898;27;95312;-77
2022/08/12 22:10:25;;;;;;;15.48;4.20;;;;;;;;;;5050973;27;96709;-79
2022/08/12 22:12:56;;;;;;;12.98;4.22;;;;;;;;;;5051152;27;97308;-80
2022/08/12 22:15:26;;;;;;;10.52;4.05;;;;;;;;;;5047011;27;97074;-80
2022/08/12 22:17:54;;;;;;;8.57;4.47;;;;;;;;;;5053932;27;96776;-80
2022/08/12 22:20:22;;;;;;;7.85;4.10;;;;;;;;;;5053378;27;95983;-79
2022/08/12 22:22:58;;;;;;;11.02;4.65;;;;;;;;;;5051661;27;96220;-79
2022/08/12 22:25:26;;;;;;;12.45;4.03;;;;;;;;;;5052533;27;97399;-80
2022/08/12 22:33:23;;;;;;;10.45;4.47;;;;;;;;;;5053356;27;96632;-79
2022/08/12 22:35:54;;;;;;;10.10;4.50;;;;;;;;;;5054313;27;95537;-80
2022/08/12 22:38:25;;;;;;;11.05;4.50;;;;;;;;;;5054798;27;96885;-79
2022/08/12 22:40:57;;;;;;;13.10;4.88;;;;;;;;;;5056884;27;97333;-79
2022/08/12 22:48:55;;;;;;;8.80;4.87;;;;;;;;;;5052409;27;97375;-81
2022/08/12 22:51:22;;;;;;;12.63;4.82;;;;;;;;;;5053232;27;96676;-80
2022/08/12 22:53:51;;;;;;;14.40;5.40;;;;;;;;;;5054129;27;97362;-80
2022/08/12 22:56:24;;;;;;;14.00;5.47;;;;;;;;;;5053314;27;95275;-78
2022/08/12 22:59:00;;;;;;;11.23;5.22;;;;;;;;;;5053722;27;95873;-79
2022/08/12 23:01:39;;;;;;;6.65;4.90;;;;;;;;;;5052221;27;98961;-81
2022/08/12 23:04:25;;;;;;;7.15;4.90;;;;;;;;;;5056215;27;96571;-80
2022/08/12 23:06:55;;;;;;;11.27;4.82;;;;;;;;;;5053896;27;97342;-80
2022/08/12 23:09:25;;;;;;;8.23;5.00;;;;;;;;;;5051420;27;95229;-79
2022/08/12 23:12:00;;;;;;;7.85;5.15;;;;;;;;;;5052525;27;96296;-81
2022/08/12 23:14:34;;;;;;;12.25;5.20;;;;;;;;;;5053497;27;96661;-80
2022/08/12 23:17:01;;;;;;;13.30;4.93;;;;;;;;;;5054042;27;95118;-80
2022/08/12 23:19:33;;;;;;;14.50;4.70;;;;;;;;;;5052537;27;96150;-80
2022/08/12 23:22:04;;;;;;;12.50;4.85;;;;;;;;;;5049320;27;96140;-80
2022/08/12 23:24:51;;;;;;;8.85;4.38;;;;;;;;;;5052881;27;95392;-80
2022/08/12 23:30:20;;;;;;;8.80;4.32;;;;;;;;;;5053557;27;96431;-80
2022/08/12 23:32:58;;;;;;;7.28;4.38;;;;;;;;;;5050941;27;96905;-80
2022/08/12 23:35:26;;;;;;;8.38;4.60;;;;;;;;;;5052451;27;97639;-80
2022/08/12 23:38:13;;;;;;;9.48;4.80;;;;;;;;;;5051736;27;95382;-81
2022/08/12 23:40:58;;;;;;;12.18;5.00;;;;;;;;;;5052849;27;96532;-81
2022/08/12 23:43:30;;;;;;;11.45;4.57;;;;;;;;;;5050737;27;97675;-80
2022/08/12 23:46:09;;;;;;;9.85;4.78;;;;;;;;;;5052873;27;95458;-81
2022/08/12 23:48:36;;;;;;;11.02;4.60;;;;;;;;;;5053878;27;96949;-78
2022/08/12 23:51:03;;;;;;;10.30;5.25;;;;;;;;;;5055329;27;97337;-80
2022/08/12 23:53:53;;;;;;;58.22;6.22;;;;;;;;;;5051627;27;96687;-81
2022/08/12 23:56:22;;;;;;;6.93;4.72;;;;;;;;;;5052832;27;97241;-80
2022/08/12 23:58:51;;;;;;;11.07;4.70;;;;;;;;;;5050722;27;96068;-82
